Terminal Aerodrome Forecast
Issued by NWS

Home | Current Version | Previous Version | Text Only | Print | Product List | Glossary On
Versions: 1 2 3 4 5 6 7 8 9 10 11 12 13 14 15 16 17 18 19 20
000
FTUS44 KLZK 191100 CCA
TAFHOT
TAF COR
KHOT 191156Z 1912/2012 VRB03KT P6SM OVC009
      TEMPO 1912/1915 2SM BR OVC005
     FM191500 10005KT P6SM OVC015
     FM191630 11005KT P6SM BKN025
     FM191800 12005KT P6SM BKN040
     FM200000 VRB03KT P6SM SKC=

USA.gov is the U.S. government's official web portal to all federal, state and local government web resources and services.